createdAt,value
2023-04-20T00:00:32.676Z,101498.84
2023-04-20T00:03:01.844Z,101494.84
2023-04-20T00:05:32.054Z,101493.81
2023-04-20T00:08:01.365Z,101487.66
2023-04-20T00:10:29.565Z,101495.03
2023-04-20T00:12:58.977Z,101490.91
2023-04-20T00:15:27.021Z,101488.94
2023-04-20T00:17:55.123Z,101489.34
2023-04-20T00:20:34.590Z,101478.25
2023-04-20T00:23:03.648Z,101488.16
2023-04-20T00:25:32.353Z,101479.09
2023-04-20T00:28:01.781Z,101478.56
2023-04-20T00:30:30.011Z,101477.66
2023-04-20T00:32:58.764Z,101469.13
2023-04-20T00:35:26.871Z,101463.28
2023-04-20T00:38:05.068Z,101472.34
2023-04-20T00:40:33.533Z,101473.94
2023-04-20T00:43:11.961Z,101473.03
2023-04-20T00:45:40.143Z,101468.03
2023-04-20T00:48:09.030Z,101460.66
2023-04-20T00:50:39.050Z,101459.56
2023-04-20T00:53:09.115Z,101460.94
2023-04-20T00:55:38.890Z,101462.34
2023-04-20T00:58:07.716Z,101453.78
2023-04-20T01:00:37.169Z,101456.69
2023-04-20T01:03:06.328Z,101456.78
2023-04-20T01:05:34.751Z,101450.44
2023-04-20T01:08:03.503Z,101451.19
2023-04-20T01:10:31.947Z,101446.06
2023-04-20T01:12:59.919Z,101443.59
2023-04-20T01:15:27.990Z,101443.84
2023-04-20T01:17:57.959Z,101436.41
2023-04-20T01:20:26.130Z,101427.84
2023-04-20T01:22:56.251Z,101426.63
2023-04-20T01:25:24.527Z,101429.88
2023-04-20T01:27:54.576Z,101422.78
2023-04-20T01:30:23.883Z,101424.72
2023-04-20T01:32:52.523Z,101420.59
2023-04-20T01:35:20.745Z,101419.69
2023-04-20T01:37:48.803Z,101415.75
2023-04-20T01:40:18.164Z,101404.44
2023-04-20T01:42:46.143Z,101403.75
2023-04-20T01:45:14.158Z,101401.75
2023-04-20T01:47:42.176Z,101397.06
2023-04-20T01:50:13.548Z,101395.50
2023-04-20T01:52:41.452Z,101398.97
2023-04-20T01:55:11.666Z,101399.69
2023-04-20T01:57:40.855Z,101380.38
2023-04-20T02:00:10.345Z,101387.03
2023-04-20T02:02:47.020Z,101386.53
2023-04-20T02:05:16.778Z,101384.69
2023-04-20T02:07:44.627Z,101387.56
2023-04-20T02:10:12.589Z,101380.56
2023-04-20T02:12:41.881Z,101388.00
2023-04-20T02:15:10.476Z,101383.63
2023-04-20T02:17:38.465Z,101370.81
2023-04-20T02:20:09.167Z,101380.84
2023-04-20T02:22:37.380Z,101386.63
2023-04-20T02:25:07.658Z,101381.91
2023-04-20T02:27:35.656Z,101368.09
2023-04-20T02:30:08.348Z,101379.78
2023-04-20T02:32:36.742Z,101377.13
2023-04-20T02:35:05.768Z,101369.84
2023-04-20T02:37:33.701Z,101374.03
2023-04-20T02:40:01.789Z,101379.53
2023-04-20T02:42:30.777Z,101376.91
2023-04-20T02:45:00.488Z,101372.81
2023-04-20T02:47:29.831Z,101379.13
2023-04-20T02:49:57.934Z,101378.03
2023-04-20T02:52:26.162Z,101371.97
2023-04-20T02:54:57.787Z,101368.31
2023-04-20T02:57:26.682Z,101364.88
2023-04-20T02:59:56.599Z,101359.91
2023-04-20T03:02:40.755Z,101351.53
2023-04-20T03:05:13.360Z,101361.50
2023-04-20T03:07:45.792Z,101361.41
2023-04-20T03:10:14.480Z,101358.91
2023-04-20T03:12:58.080Z,101357.72
2023-04-20T03:15:44.768Z,101353.63
2023-04-20T03:18:26.526Z,101359.31
2023-04-20T03:20:55.347Z,101359.09
2023-04-20T03:23:23.644Z,101350.53
2023-04-20T03:25:52.313Z,101357.72
2023-04-20T03:28:43.460Z,101360.19
2023-04-20T03:31:15.100Z,101359.31
2023-04-20T03:33:44.928Z,101365.06
2023-04-20T03:36:13.221Z,101368.38
2023-04-20T03:38:41.467Z,101368.25
2023-04-20T03:41:09.449Z,101379.06
2023-04-20T03:43:37.695Z,101365.53
2023-04-20T03:46:05.698Z,101361.66
2023-04-20T03:48:34.005Z,101373.44
2023-04-20T03:51:03.442Z,101366.56
2023-04-20T03:53:32.621Z,101367.66
2023-04-20T03:56:01.799Z,101365.94
2023-04-20T03:58:29.892Z,101371.72
2023-04-20T04:01:09.741Z,101364.78
2023-04-20T04:03:41.541Z,101361.34
2023-04-20T04:06:12.757Z,101366.78
2023-04-20T04:08:41.781Z,101369.28
2023-04-20T04:11:09.770Z,101355.31
2023-04-20T04:13:37.618Z,101357.06
2023-04-20T04:16:08.387Z,101367.06
2023-04-20T04:18:36.857Z,101366.03
2023-04-20T04:21:12.032Z,101365.44
2023-04-20T04:23:43.458Z,101375.75
2023-04-20T04:26:24.758Z,101376.13
2023-04-20T04:28:53.892Z,101360.88
2023-04-20T04:31:23.651Z,101368.53
2023-04-20T04:33:52.473Z,101367.97
2023-04-20T04:36:30.701Z,101368.00
2023-04-20T04:39:00.151Z,101364.13
2023-04-20T04:41:29.203Z,101361.63
2023-04-20T04:44:08.901Z,101358.25
2023-04-20T04:46:37.194Z,101368.91
2023-04-20T04:49:05.886Z,101358.75
2023-04-20T04:51:35.270Z,101356.16
2023-04-20T04:54:03.352Z,101360.25
2023-04-20T04:56:31.220Z,101364.97
2023-04-20T04:58:59.206Z,101367.97
2023-04-20T05:01:27.141Z,101375.72
2023-04-20T05:03:55.370Z,101368.34
2023-04-20T05:06:23.585Z,101363.91
2023-04-20T05:08:52.830Z,101370.69
2023-04-20T05:11:20.798Z,101376.53
2023-04-20T05:13:49.911Z,101378.25
2023-04-20T05:16:17.828Z,101381.75
2023-04-20T05:18:45.731Z,101387.34
2023-04-20T05:21:13.639Z,101380.56
2023-04-20T05:23:42.061Z,101388.88
2023-04-20T05:26:11.594Z,101382.25
2023-04-20T05:28:43.219Z,101383.69
2023-04-20T05:31:11.302Z,101392.22
2023-04-20T05:33:39.443Z,101391.06
2023-04-20T05:36:09.982Z,101382.69
2023-04-20T05:38:38.030Z,101382.88
2023-04-20T05:41:06.516Z,101391.25
2023-04-20T05:43:35.944Z,101394.91
2023-04-20T05:46:03.835Z,101392.78
2023-04-20T05:48:31.897Z,101399.91
2023-04-20T05:51:00.078Z,101400.00
2023-04-20T05:53:28.031Z,101405.84
2023-04-20T05:55:56.185Z,101397.28
2023-04-20T05:58:24.757Z,101407.72
2023-04-20T06:00:54.720Z,101400.28
2023-04-20T06:03:22.810Z,101413.16
2023-04-20T06:05:51.261Z,101405.03
2023-04-20T06:08:19.488Z,101415.28
2023-04-20T06:10:47.460Z,101410.09
2023-04-20T06:13:15.436Z,101417.03
2023-04-20T06:15:43.579Z,101400.03
2023-04-20T06:18:13.092Z,101397.16
2023-04-20T06:20:41.087Z,101389.44
2023-04-20T06:23:09.208Z,101390.69
2023-04-20T06:25:37.384Z,101381.00
2023-04-20T06:28:05.574Z,101385.38
2023-04-20T06:30:33.806Z,101377.94
2023-04-20T06:33:02.155Z,101376.84
2023-04-20T06:35:31.534Z,101392.69
2023-04-20T06:37:59.589Z,101385.50
2023-04-20T06:40:28.134Z,101397.50
2023-04-20T06:42:56.383Z,101388.44
2023-04-20T06:45:24.523Z,101387.47
2023-04-20T06:47:52.578Z,101390.47
2023-04-20T06:50:20.783Z,101391.19
2023-04-20T06:52:50.614Z,101396.13
2023-04-20T06:55:19.119Z,101404.19
2023-04-20T06:57:47.512Z,101400.03
2023-04-20T07:00:16.567Z,101389.25
2023-04-20T07:02:46.475Z,101399.00
2023-04-20T07:05:14.838Z,101401.22
2023-04-20T07:07:43.375Z,101396.34
2023-04-20T07:10:14.637Z,101398.53
2023-04-20T07:12:44.085Z,101401.66
2023-04-20T07:15:12.701Z,101406.50
2023-04-20T07:17:40.756Z,101405.09
2023-04-20T07:20:10.026Z,101393.91
2023-04-20T07:22:38.974Z,101404.41
2023-04-20T07:25:08.862Z,101408.56
2023-04-20T07:27:39.332Z,101409.00
2023-04-20T07:30:09.156Z,101412.16
2023-04-20T07:32:38.424Z,101415.22
2023-04-20T07:35:07.217Z,101418.09
2023-04-20T07:37:35.271Z,101416.22
2023-04-20T07:40:06.138Z,101421.28
2023-04-20T07:42:34.855Z,101411.38
2023-04-20T07:45:04.835Z,101411.75
2023-04-20T07:47:34.151Z,101414.66
2023-04-20T07:50:01.972Z,101411.00
2023-04-20T07:52:30.047Z,101410.09
2023-04-20T07:54:59.563Z,101409.41
2023-04-20T07:57:28.169Z,101409.81
2023-04-20T07:59:56.191Z,101411.78
2023-04-20T08:02:25.605Z,101419.91
2023-04-20T08:04:54.179Z,101423.13
2023-04-20T08:07:22.537Z,101411.66
2023-04-20T08:09:50.814Z,101412.75
2023-04-20T08:12:18.750Z,101406.41
2023-04-20T08:14:46.639Z,101410.66
2023-04-20T08:17:14.573Z,101416.69
2023-04-20T08:19:45.960Z,101409.56
2023-04-20T08:22:14.301Z,101411.28
2023-04-20T08:24:42.336Z,101423.88
2023-04-20T08:27:10.141Z,101426.88
2023-04-20T08:29:39.564Z,101422.56
2023-04-20T08:32:09.137Z,101423.63
2023-04-20T08:34:37.439Z,101430.91
2023-04-20T08:37:07.205Z,101434.72
2023-04-20T08:39:35.135Z,101431.09
2023-04-20T08:42:03.322Z,101417.78
2023-04-20T08:44:31.336Z,101433.38
2023-04-20T08:47:01.605Z,101422.75
2023-04-20T08:49:30.839Z,101416.63
2023-04-20T08:51:58.731Z,101426.06
2023-04-20T08:54:28.317Z,101416.75
2023-04-20T08:56:56.885Z,101425.91
2023-04-20T08:59:24.672Z,101423.97
2023-04-20T09:01:52.693Z,101413.22
2023-04-20T09:04:23.262Z,101417.94
2023-04-20T09:06:54.029Z,101420.63
2023-04-20T09:09:23.812Z,101424.31
2023-04-20T09:12:03.629Z,101418.72
2023-04-20T09:14:32.150Z,101418.13
2023-04-20T09:17:02.155Z,101416.16
2023-04-20T09:19:31.291Z,101421.03
2023-04-20T09:22:01.242Z,101428.75
2023-04-20T09:24:33.705Z,101430.78
2023-04-20T09:27:04.307Z,101420.44
2023-04-20T09:29:32.302Z,101425.91
2023-04-20T09:32:00.283Z,101426.84
2023-04-20T09:34:28.228Z,101423.06
2023-04-20T09:36:57.775Z,101425.97
2023-04-20T09:39:26.860Z,101428.97
2023-04-20T09:41:54.793Z,101434.16
2023-04-20T09:44:23.992Z,101430.28
2023-04-20T09:46:52.264Z,101428.50
2023-04-20T09:49:21.340Z,101416.63
2023-04-20T09:51:50.713Z,101423.06
2023-04-20T09:54:18.680Z,101430.31
2023-04-20T09:56:48.592Z,101422.94
2023-04-20T09:59:20.222Z,101417.78
2023-04-20T10:01:50.062Z,101424.22
2023-04-20T10:04:18.255Z,101413.03
2023-04-20T10:06:54.780Z,101417.34
2023-04-20T10:09:24.469Z,101433.19
2023-04-20T10:11:54.606Z,101416.59
2023-04-20T10:14:25.569Z,101421.44
2023-04-20T10:17:02.457Z,101424.97
2023-04-20T10:19:40.961Z,101429.41
2023-04-20T10:22:10.048Z,101428.97
2023-04-20T10:24:39.070Z,101436.69
2023-04-20T10:27:18.139Z,101432.47
2023-04-20T10:29:46.458Z,101438.94
2023-04-20T10:32:25.273Z,101432.16
2023-04-20T10:35:04.827Z,101432.78
2023-04-20T10:37:32.866Z,101426.75
2023-04-20T10:40:01.704Z,101423.38
2023-04-20T10:42:30.669Z,101416.25
2023-04-20T10:44:58.886Z,101413.22
2023-04-20T10:47:34.239Z,101416.16
2023-04-20T10:50:10.235Z,101410.94
2023-04-20T10:52:40.028Z,101408.25
2023-04-20T10:55:19.174Z,101406.00
2023-04-20T10:57:47.151Z,101402.72
2023-04-20T11:00:17.797Z,101414.41
2023-04-20T11:02:51.707Z,101416.41
2023-04-20T11:05:22.557Z,101418.75
2023-04-20T11:07:54.550Z,101420.56
2023-04-20T11:10:23.484Z,101405.50
2023-04-20T11:12:52.157Z,101423.19
2023-04-20T11:15:20.032Z,101413.91
2023-04-20T11:17:47.891Z,101397.47
2023-04-20T11:20:18.556Z,101411.56
2023-04-20T11:22:57.831Z,101404.81
2023-04-20T11:25:25.933Z,101400.22
2023-04-20T11:27:54.082Z,101405.59
2023-04-20T11:30:22.001Z,101391.94
2023-04-20T11:32:55.851Z,101398.19
2023-04-20T11:35:25.394Z,101393.72
2023-04-20T11:37:54.429Z,101386.91
2023-04-20T11:40:22.628Z,101380.25
2023-04-20T11:42:50.794Z,101374.41
2023-04-20T11:45:18.945Z,101374.06
2023-04-20T11:47:47.387Z,101377.81
2023-04-20T11:50:15.426Z,101370.91
2023-04-20T11:52:44.845Z,101368.41
2023-04-20T11:55:12.751Z,101367.53
2023-04-20T11:57:40.915Z,101364.47
2023-04-20T12:00:10.314Z,101359.59
2023-04-20T12:02:44.029Z,101354.09
2023-04-20T12:05:12.519Z,101348.31
2023-04-20T12:07:40.548Z,101350.97
2023-04-20T12:10:10.814Z,101345.41
2023-04-20T12:12:39.115Z,101357.31
2023-04-20T12:15:08.265Z,101350.38
2023-04-20T12:17:36.244Z,101359.59
2023-04-20T12:20:06.146Z,101345.75
2023-04-20T12:22:34.330Z,101348.38
2023-04-20T12:25:02.189Z,101334.06
2023-04-20T12:27:31.426Z,101333.38
2023-04-20T12:29:59.289Z,101328.13
2023-04-20T12:32:27.191Z,101332.91
2023-04-20T12:34:55.204Z,101335.47
2023-04-20T12:37:23.130Z,101326.75
2023-04-20T12:39:51.343Z,101319.78
2023-04-20T12:42:19.496Z,101315.50
2023-04-20T12:44:48.717Z,101314.22
2023-04-20T12:47:16.568Z,101309.69
2023-04-20T12:49:44.481Z,101305.66
2023-04-20T12:52:12.389Z,101308.25
2023-04-20T12:54:42.709Z,101308.47
2023-04-20T12:57:11.933Z,101307.81
2023-04-20T12:59:39.775Z,101308.19
2023-04-20T13:02:09.192Z,101301.78
2023-04-20T13:04:37.219Z,101298.50
2023-04-20T13:07:05.154Z,101293.97
2023-04-20T13:09:33.164Z,101305.75
2023-04-20T13:12:01.301Z,101318.94
2023-04-20T13:14:29.242Z,101325.84
2023-04-20T13:16:57.360Z,101330.44
2023-04-20T13:19:26.908Z,101318.78
2023-04-20T13:21:54.799Z,101310.44
2023-04-20T13:24:22.776Z,101308.44
2023-04-20T13:26:52.771Z,101307.00
2023-04-20T13:29:21.141Z,101306.69
2023-04-20T13:31:49.283Z,101313.88
2023-04-20T13:34:17.646Z,101313.06
2023-04-20T13:36:47.336Z,101298.75
2023-04-20T13:39:15.559Z,101308.19
2023-04-20T13:41:43.553Z,101311.00
2023-04-20T13:44:15.870Z,101309.75
2023-04-20T13:46:44.725Z,101307.72
2023-04-20T13:49:13.500Z,101304.75
2023-04-20T13:51:41.884Z,101294.22
2023-04-20T13:54:11.137Z,101291.97
2023-04-20T13:56:39.008Z,101292.34
2023-04-20T13:59:09.069Z,101285.81
2023-04-20T14:01:37.464Z,101288.22
2023-04-20T14:04:05.985Z,101288.94
2023-04-20T14:06:34.039Z,101293.50
2023-04-20T14:09:02.182Z,101305.44
2023-04-20T14:11:31.876Z,101293.03
2023-04-20T14:14:00.194Z,101283.91
2023-04-20T14:16:28.610Z,101298.00
2023-04-20T14:18:56.842Z,101297.63
2023-04-20T14:21:24.704Z,101298.03
2023-04-20T14:23:53.460Z,101307.50
2023-04-20T14:26:21.683Z,101294.94
2023-04-20T14:28:52.604Z,101296.44
2023-04-20T14:31:24.067Z,101292.16
2023-04-20T14:33:52.057Z,101285.75
2023-04-20T14:36:20.486Z,101288.34
2023-04-20T14:38:48.487Z,101282.94
2023-04-20T14:41:16.988Z,101287.00
2023-04-20T14:43:45.195Z,101286.91
2023-04-20T14:46:14.452Z,101282.97
2023-04-20T14:48:42.806Z,101285.28
2023-04-20T14:51:10.815Z,101290.69
2023-04-20T14:53:38.719Z,101304.53
2023-04-20T14:56:07.126Z,101300.75
2023-04-20T14:58:36.021Z,101294.56
2023-04-20T15:01:03.970Z,101302.09
2023-04-20T15:03:33.470Z,101300.78
2023-04-20T15:06:03.632Z,101305.91
2023-04-20T15:08:31.581Z,101305.63
2023-04-20T15:10:59.455Z,101300.75
2023-04-20T15:13:27.500Z,101309.31
2023-04-20T15:15:56.006Z,101307.56
2023-04-20T15:18:24.017Z,101314.13
2023-04-20T15:20:53.561Z,101303.34
2023-04-20T15:23:22.062Z,101315.50
2023-04-20T15:25:49.953Z,101303.41
2023-04-20T15:28:18.010Z,101307.94
2023-04-20T15:30:48.742Z,101312.63
2023-04-20T15:33:16.812Z,101320.38
2023-04-20T15:35:44.883Z,101327.47
2023-04-20T15:38:14.145Z,101328.03
2023-04-20T15:40:42.171Z,101321.34
2023-04-20T15:43:10.109Z,101330.16
2023-04-20T15:45:38.044Z,101330.84
2023-04-20T15:48:06.510Z,101323.34
2023-04-20T15:50:35.486Z,101318.81
2023-04-20T15:53:03.937Z,101315.03
2023-04-20T15:55:35.642Z,101323.41
2023-04-20T15:58:03.668Z,101307.97
2023-04-20T16:00:31.646Z,101312.84
2023-04-20T16:03:01.443Z,101304.09
2023-04-20T16:05:29.737Z,101297.09
2023-04-20T16:07:57.962Z,101298.56
2023-04-20T16:10:27.283Z,101290.44
2023-04-20T16:12:58.071Z,101292.81
2023-04-20T16:15:26.059Z,101298.31
2023-04-20T16:17:54.381Z,101289.41
2023-04-20T16:20:22.570Z,101293.34
2023-04-20T16:22:50.468Z,101282.16
2023-04-20T16:25:22.836Z,101272.19
2023-04-20T16:27:52.009Z,101273.53
2023-04-20T16:30:21.730Z,101273.41
2023-04-20T16:32:49.928Z,101283.88
2023-04-20T16:35:18.476Z,101275.56
2023-04-20T16:37:46.934Z,101271.56
2023-04-20T16:40:15.019Z,101265.75
2023-04-20T16:42:43.154Z,101288.22
2023-04-20T16:45:11.421Z,101273.59
2023-04-20T16:47:41.282Z,101273.97
2023-04-20T16:50:10.143Z,101270.47
2023-04-20T16:52:38.243Z,101276.50
2023-04-20T16:55:07.240Z,101262.75
2023-04-20T16:57:36.166Z,101265.03
2023-04-20T17:00:06.568Z,101266.88
2023-04-20T17:02:36.460Z,101267.19
2023-04-20T17:05:07.748Z,101274.56
2023-04-20T17:07:37.525Z,101276.31
2023-04-20T17:10:07.083Z,101272.28
2023-04-20T17:12:35.316Z,101275.16
2023-04-20T17:15:03.460Z,101270.50
2023-04-20T17:17:32.751Z,101257.53
2023-04-20T17:20:01.269Z,101263.53
2023-04-20T17:22:30.704Z,101262.84
2023-04-20T17:24:58.988Z,101265.84
2023-04-20T17:27:27.286Z,101265.66
2023-04-20T17:29:56.054Z,101266.38
2023-04-20T17:32:24.778Z,101270.25
2023-04-20T17:34:53.946Z,101266.91
2023-04-20T17:37:24.463Z,101263.97
2023-04-20T17:39:54.124Z,101268.50
2023-04-20T17:42:25.035Z,101264.44
2023-04-20T17:44:54.076Z,101267.03
2023-04-20T17:47:22.730Z,101273.34
2023-04-20T17:49:51.093Z,101271.44
2023-04-20T17:52:22.300Z,101282.59
2023-04-20T17:54:51.128Z,101281.97
2023-04-20T17:57:20.916Z,101283.22
2023-04-20T17:59:50.761Z,101287.44
2023-04-20T18:02:19.060Z,101284.31
2023-04-20T18:04:52.561Z,101290.72
2023-04-20T18:07:22.221Z,101296.47
2023-04-20T18:09:51.095Z,101303.34
2023-04-20T18:12:21.308Z,101303.59
2023-04-20T18:14:49.609Z,101304.09
2023-04-20T18:17:18.248Z,101308.06
2023-04-20T18:19:46.695Z,101308.97
2023-04-20T18:22:21.491Z,101309.72
2023-04-20T18:24:49.931Z,101317.56
2023-04-20T18:27:18.493Z,101312.22
2023-04-20T18:29:49.837Z,101318.03
2023-04-20T18:32:18.223Z,101314.56
2023-04-20T18:34:46.636Z,101307.63
2023-04-20T18:37:21.362Z,101318.69
2023-04-20T18:39:49.633Z,101319.84
2023-04-20T18:42:20.310Z,101302.16
2023-04-20T18:44:51.123Z,101315.88
2023-04-20T18:47:20.949Z,101317.97
2023-04-20T18:49:49.158Z,101304.84
2023-04-20T18:52:17.410Z,101317.72
2023-04-20T18:54:46.914Z,101310.25
2023-04-20T18:57:15.059Z,101311.97
2023-04-20T18:59:43.252Z,101331.88
2023-04-20T19:02:13.577Z,101310.16
2023-04-20T19:04:43.934Z,101312.06
2023-04-20T19:07:14.107Z,101318.41
2023-04-20T19:09:42.219Z,101313.34
2023-04-20T19:12:10.495Z,101318.56
2023-04-20T19:14:38.650Z,101299.63
2023-04-20T19:17:08.479Z,101308.03
2023-04-20T19:19:38.043Z,101315.03
2023-04-20T19:22:06.174Z,101304.38
2023-04-20T19:24:34.485Z,101311.31
2023-04-20T19:27:03.279Z,101306.69
2023-04-20T19:29:32.826Z,101294.38
2023-04-20T19:32:00.980Z,101294.81
2023-04-20T19:34:29.246Z,101295.41
2023-04-20T19:37:00.483Z,101302.16
2023-04-20T19:39:29.054Z,101303.69
2023-04-20T19:41:57.632Z,101297.19
2023-04-20T19:44:25.533Z,101282.50
2023-04-20T19:46:53.746Z,101277.16
2023-04-20T19:49:22.070Z,101280.06
2023-04-20T19:51:50.139Z,101277.94
2023-04-20T19:54:19.762Z,101276.44
2023-04-20T19:56:47.731Z,101264.31
2023-04-20T19:59:15.904Z,101266.75
2023-04-20T20:01:44.172Z,101270.53
2023-04-20T20:04:12.693Z,101261.66
2023-04-20T20:06:40.767Z,101263.00
2023-04-20T20:09:08.643Z,101260.47
2023-04-20T20:11:37.839Z,101255.69
2023-04-20T20:14:05.670Z,101257.47
2023-04-20T20:16:34.149Z,101248.44
2023-04-20T20:19:01.993Z,101241.75
2023-04-20T20:21:29.807Z,101240.28
2023-04-20T20:23:57.685Z,101239.94
2023-04-20T20:26:25.574Z,101242.06
2023-04-20T20:28:54.856Z,101240.06
2023-04-20T20:31:22.740Z,101239.56
2023-04-20T20:33:51.041Z,101243.09
2023-04-20T20:36:18.891Z,101243.16
2023-04-20T20:38:47.270Z,101243.03
2023-04-20T20:41:16.340Z,101239.81
2023-04-20T20:43:45.677Z,101233.84
2023-04-20T20:46:15.061Z,101238.19
2023-04-20T20:48:43.101Z,101242.34
2023-04-20T20:51:11.653Z,101233.28
2023-04-20T20:53:39.549Z,101228.88
2023-04-20T20:56:07.666Z,101221.31
2023-04-20T20:58:35.502Z,101233.88
2023-04-20T21:01:03.534Z,101221.34
2023-04-20T21:03:32.984Z,101225.03
2023-04-20T21:06:01.010Z,101223.75
2023-04-20T21:08:28.876Z,101221.97
2023-04-20T21:10:56.733Z,101218.66
2023-04-20T21:13:25.046Z,101218.97
2023-04-20T21:15:53.033Z,101215.72
2023-04-20T21:18:21.052Z,101215.97
2023-04-20T21:20:50.480Z,101211.91
2023-04-20T21:23:18.434Z,101209.41
2023-04-20T21:25:46.252Z,101215.56
2023-04-20T21:28:14.145Z,101208.00
2023-04-20T21:30:41.937Z,101211.00
2023-04-20T21:33:09.989Z,101204.34
2023-04-20T21:35:37.982Z,101216.34
2023-04-20T21:38:07.389Z,101208.94
2023-04-20T21:40:35.747Z,101213.56
2023-04-20T21:43:03.884Z,101214.47
2023-04-20T21:45:31.803Z,101210.25
2023-04-20T21:47:59.746Z,101208.44
2023-04-20T21:50:28.601Z,101200.31
2023-04-20T21:52:56.501Z,101194.34
2023-04-20T21:55:25.799Z,101197.69
2023-04-20T21:57:53.629Z,101199.81
2023-04-20T22:00:21.775Z,101195.66
2023-04-20T22:02:50.536Z,101189.72
2023-04-20T22:05:18.699Z,101186.25
2023-04-20T22:07:46.893Z,101189.22
2023-04-20T22:10:15.190Z,101185.91
2023-04-20T22:12:44.563Z,101186.53
2023-04-20T22:15:14.788Z,101194.09
2023-04-20T22:17:45.438Z,101184.34
2023-04-20T22:20:14.741Z,101192.91
2023-04-20T22:22:43.027Z,101181.94
2023-04-20T22:25:11.692Z,101186.16
2023-04-20T22:27:39.625Z,101183.69
2023-04-20T22:30:10.176Z,101183.47
2023-04-20T22:32:38.641Z,101179.06
2023-04-20T22:35:07.824Z,101182.25
2023-04-20T22:37:36.402Z,101184.84
2023-04-20T22:40:05.898Z,101185.88
2023-04-20T22:42:34.723Z,101177.34
2023-04-20T22:45:02.762Z,101179.75
2023-04-20T22:47:32.379Z,101183.97
2023-04-20T22:50:00.364Z,101183.16
2023-04-20T22:52:28.135Z,101176.72
2023-04-20T22:54:56.028Z,101176.84
2023-04-20T22:57:24.207Z,101175.53
2023-04-20T22:59:52.111Z,101182.19
2023-04-20T23:02:20.130Z,101178.88
2023-04-20T23:04:52.071Z,101177.47
2023-04-20T23:07:21.193Z,101170.16
2023-04-20T23:09:49.226Z,101171.75
2023-04-20T23:12:17.516Z,101172.06
2023-04-20T23:14:45.577Z,101178.28
2023-04-20T23:17:13.708Z,101184.53
2023-04-20T23:19:41.763Z,101182.47
2023-04-20T23:22:10.980Z,101179.34
2023-04-20T23:24:38.825Z,101182.41
2023-04-20T23:27:06.800Z,101180.75
2023-04-20T23:29:34.753Z,101180.34
2023-04-20T23:32:02.921Z,101177.75
2023-04-20T23:34:31.430Z,101172.53
2023-04-20T23:36:59.400Z,101174.97
2023-04-20T23:39:28.772Z,101167.53
2023-04-20T23:41:57.792Z,101172.19
2023-04-20T23:44:25.837Z,101167.06
2023-04-20T23:46:53.714Z,101164.72
2023-04-20T23:49:21.784Z,101168.50
2023-04-20T23:51:50.969Z,101166.09
2023-04-20T23:54:19.155Z,101155.84
2023-04-20T23:56:48.381Z,101162.63
2023-04-20T23:59:16.384Z,101156.22
